Bow Mar, Colorado
Current Conditions -  °F | °C
As of 10:53 PM on Saturday 25 Oct 2014 (Local Time) from KAPA Reporting Station
Clear Clear  
Wind Chill: 54°   Ceiling: Unl
Heat Index: 54°   Visibility: 10mi
Dew Point: 23°   Wind: 5mph
Humidity: 30%   Direction: 150°SSE
Pressure: 30.03"   Gusts: NA
Location:  39.5977°N, 105.071°W
Report Text: KAPA 260453Z 15004KT 10SM CLR 12/M05 A3003 RMK AO2 SLP121 T01221050
Loading
Personal Weather Stations






























Interactive Weather Map
Tropical Storm Tracking
New forecast layout! Learn more

10-Day Weather Forecast

Advertisements
Track Severe Weather on mobile